createdAt,value
2018-07-25T00:00:20.704Z,94377.41
2018-07-25T00:02:46.718Z,94371.08
2018-07-25T00:05:12.730Z,94373.08
2018-07-25T00:07:38.747Z,94367.53
2018-07-25T00:10:04.753Z,94366.15
2018-07-25T00:12:30.761Z,94362.00
2018-07-25T00:14:56.778Z,94346.55
2018-07-25T00:17:22.798Z,94347.14
2018-07-25T00:19:48.803Z,94360.98
2018-07-25T00:22:14.854Z,94359.23
2018-07-25T00:24:40.866Z,94355.66
2018-07-25T00:27:06.885Z,94360.61
2018-07-25T00:29:32.898Z,94366.92
2018-07-25T00:31:58.922Z,94358.83
2018-07-25T00:34:24.925Z,94366.16
2018-07-25T00:36:50.932Z,94364.95
2018-07-25T00:39:16.936Z,94367.73
2018-07-25T00:41:42.941Z,94359.42
2018-07-25T00:44:08.955Z,94367.91
2018-07-25T00:46:34.970Z,94367.14
2018-07-25T00:49:00.978Z,94364.38
2018-07-25T00:51:26.990Z,94363.97
2018-07-25T00:53:53.002Z,94362.19
2018-07-25T00:56:19.018Z,94363.58
2018-07-25T00:58:45.031Z,94364.16
2018-07-25T01:01:11.042Z,94359.23
2018-07-25T01:03:37.057Z,94360.63
2018-07-25T01:06:03.067Z,94357.45
2018-07-25T01:08:29.085Z,94357.85
2018-07-25T01:10:55.100Z,94354.28
2018-07-25T01:13:21.123Z,94356.25
2018-07-25T01:15:47.130Z,94362.78
2018-07-25T01:18:13.149Z,94362.38
2018-07-25T01:20:39.159Z,94361.61
2018-07-25T01:23:05.176Z,94354.28
2018-07-25T01:25:31.196Z,94363.98
2018-07-25T01:27:57.204Z,94362.38
2018-07-25T01:30:23.218Z,94358.44
2018-07-25T01:32:49.241Z,94363.18
2018-07-25T01:35:15.249Z,94358.04
2018-07-25T01:37:41.253Z,94361.39
2018-07-25T01:40:07.348Z,94356.84
2018-07-25T01:42:33.361Z,94362.01
2018-07-25T01:44:59.373Z,94355.45
2018-07-25T01:47:25.376Z,94354.69
2018-07-25T01:49:51.395Z,94345.00
2018-07-25T01:52:17.406Z,94350.14
2018-07-25T01:54:43.455Z,94355.67
2018-07-25T01:57:09.460Z,94357.06
2018-07-25T01:59:35.519Z,94361.61
2018-07-25T02:02:01.530Z,94358.05
2018-07-25T02:04:27.537Z,94364.56
2018-07-25T02:06:53.551Z,94361.40
2018-07-25T02:09:19.574Z,94361.80
2018-07-25T02:11:45.587Z,94364.16
2018-07-25T02:14:11.599Z,94359.83
2018-07-25T02:16:37.607Z,94363.77
2018-07-25T02:19:03.619Z,94364.78
2018-07-25T02:21:29.629Z,94367.73
2018-07-25T02:23:55.639Z,94367.73
2018-07-25T02:26:21.652Z,94364.56
2018-07-25T02:28:47.664Z,94363.58
2018-07-25T02:31:13.684Z,94364.56
2018-07-25T02:33:39.693Z,94365.55
2018-07-25T02:36:05.757Z,94369.70
2018-07-25T02:38:31.715Z,94370.28
2018-07-25T02:40:57.730Z,94372.69
2018-07-25T02:43:23.738Z,94375.45
2018-07-25T02:45:49.740Z,94377.83
2018-07-25T02:48:15.744Z,94379.39
2018-07-25T02:50:41.765Z,94374.84
2018-07-25T02:53:07.783Z,94369.13
2018-07-25T02:55:33.791Z,94369.13
2018-07-25T02:57:59.800Z,94372.47
2018-07-25T03:00:25.804Z,94374.66
2018-07-25T03:02:51.814Z,94375.24
2018-07-25T03:05:17.827Z,94368.32
2018-07-25T03:07:43.843Z,94374.84
2018-07-25T03:10:09.859Z,94379.61
2018-07-25T03:12:35.866Z,94384.13
2018-07-25T03:15:01.874Z,94380.38
2018-07-25T03:17:27.883Z,94382.75
2018-07-25T03:19:53.898Z,94382.96
2018-07-25T03:22:19.902Z,94378.59
2018-07-25T03:24:45.911Z,94384.53
2018-07-25T03:27:11.912Z,94387.30
2018-07-25T03:29:37.926Z,94388.28
2018-07-25T03:32:03.939Z,94393.64
2018-07-25T03:34:29.951Z,94394.04
2018-07-25T03:36:55.958Z,94388.50
2018-07-25T03:39:21.969Z,94399.98
2018-07-25T03:41:47.982Z,94400.56
2018-07-25T03:44:13.987Z,94401.55
2018-07-25T03:46:40.012Z,94402.53
2018-07-25T03:49:06.035Z,94401.55
2018-07-25T03:51:32.051Z,94414.22
2018-07-25T03:53:58.073Z,94413.42
2018-07-25T03:56:24.081Z,94413.42
2018-07-25T03:58:50.090Z,94423.30
2018-07-25T04:01:16.104Z,94422.71
2018-07-25T04:03:42.112Z,94428.83
2018-07-25T04:06:08.419Z,94421.91
2018-07-25T04:08:34.478Z,94422.31
2018-07-25T04:11:00.485Z,94421.91
2018-07-25T04:13:26.545Z,94421.72
2018-07-25T04:15:52.628Z,94414.62
2018-07-25T04:18:18.611Z,94416.19
2018-07-25T04:20:44.628Z,94423.11
2018-07-25T04:23:10.635Z,94423.11
2018-07-25T04:25:36.646Z,94426.06
2018-07-25T04:28:02.705Z,94428.25
2018-07-25T04:30:28.715Z,94434.38
2018-07-25T04:32:54.716Z,94427.84
2018-07-25T04:35:20.725Z,94433.60
2018-07-25T04:37:46.762Z,94427.66
2018-07-25T04:40:12.743Z,94432.80
2018-07-25T04:42:38.752Z,94434.00
2018-07-25T04:45:04.785Z,94431.23
2018-07-25T04:47:30.803Z,94428.47
2018-07-25T04:49:56.810Z,94429.63
2018-07-25T04:52:22.824Z,94431.41
2018-07-25T04:54:48.839Z,94434.19
2018-07-25T04:57:14.857Z,94435.39
2018-07-25T04:59:40.864Z,94437.54
2018-07-25T05:02:09.044Z,94440.70
2018-07-25T05:04:35.106Z,94435.97
2018-07-25T05:07:01.185Z,94441.91
2018-07-25T05:09:27.137Z,94436.55
2018-07-25T05:11:53.210Z,94432.98
2018-07-25T05:14:19.221Z,94443.48
2018-07-25T05:16:45.234Z,94446.25
2018-07-25T05:19:11.248Z,94432.80
2018-07-25T05:21:37.270Z,94440.70
2018-07-25T05:24:03.288Z,94438.34
2018-07-25T05:26:29.292Z,94447.05
2018-07-25T05:28:55.368Z,94440.12
2018-07-25T05:31:21.378Z,94444.06
2018-07-25T05:33:47.376Z,94443.88
2018-07-25T05:36:13.424Z,94442.49
2018-07-25T05:38:39.428Z,94444.28
2018-07-25T05:41:05.444Z,94437.54
2018-07-25T05:43:31.461Z,94436.37
2018-07-25T05:45:57.546Z,94446.25
2018-07-25T05:48:23.570Z,94441.51
2018-07-25T05:50:49.584Z,94444.28
2018-07-25T05:53:15.596Z,94450.40
2018-07-25T05:55:41.634Z,94452.98
2018-07-25T05:58:07.649Z,94460.49
2018-07-25T06:00:33.680Z,94464.06
2018-07-25T06:02:59.761Z,94465.23
2018-07-25T06:05:25.737Z,94471.97
2018-07-25T06:07:51.757Z,94467.59
2018-07-25T06:10:17.772Z,94473.14
2018-07-25T06:12:43.847Z,94474.52
2018-07-25T06:15:09.804Z,94466.43
2018-07-25T06:17:35.872Z,94470.37
2018-07-25T06:20:01.858Z,94472.55
2018-07-25T06:22:27.831Z,94477.29
2018-07-25T06:24:53.859Z,94478.09
2018-07-25T06:27:19.884Z,94474.92
2018-07-25T06:29:45.939Z,94474.92
2018-07-25T06:32:11.953Z,94478.48
2018-07-25T06:34:37.964Z,94478.89
2018-07-25T06:37:03.970Z,94478.31
2018-07-25T06:39:30.163Z,94480.27
2018-07-25T06:41:56.189Z,94482.83
2018-07-25T06:44:22.192Z,94482.83
2018-07-25T06:46:48.219Z,94483.23
2018-07-25T06:49:14.230Z,94485.81
2018-07-25T06:51:40.275Z,94481.26
2018-07-25T06:54:06.321Z,94492.52
2018-07-25T06:56:32.353Z,94492.73
2018-07-25T06:58:58.376Z,94492.72
2018-07-25T07:01:24.498Z,94501.62
2018-07-25T07:03:50.502Z,94498.67
2018-07-25T07:06:16.520Z,94495.90
2018-07-25T07:08:42.554Z,94499.66
2018-07-25T07:11:08.565Z,94504.39
2018-07-25T07:13:34.580Z,94505.59
2018-07-25T07:16:00.619Z,94502.42
2018-07-25T07:18:26.620Z,94504.20
2018-07-25T07:20:52.632Z,94505.99
2018-07-25T07:23:18.668Z,94504.80
2018-07-25T07:25:44.728Z,94508.15
2018-07-25T07:28:10.719Z,94509.13
2018-07-25T07:30:36.725Z,94506.58
2018-07-25T07:33:02.738Z,94509.75
2018-07-25T07:35:28.746Z,94504.39
2018-07-25T07:37:54.764Z,94504.98
2018-07-25T07:40:20.781Z,94505.59
2018-07-25T07:42:46.880Z,94500.83
2018-07-25T07:45:12.987Z,94500.83
2018-07-25T07:47:39.002Z,94506.36
2018-07-25T07:50:04.996Z,94500.45
2018-07-25T07:52:31.031Z,94510.73
2018-07-25T07:54:57.038Z,94501.05
2018-07-25T07:57:23.055Z,94505.37
2018-07-25T07:59:49.088Z,94499.26
2018-07-25T08:02:15.094Z,94503.59
2018-07-25T08:04:41.109Z,94505.38
2018-07-25T08:07:07.127Z,94504.61
2018-07-25T08:09:33.144Z,94510.73
2018-07-25T08:11:59.177Z,94511.53
2018-07-25T08:14:25.201Z,94515.88
2018-07-25T08:16:51.209Z,94515.48
2018-07-25T08:19:17.228Z,94512.52
2018-07-25T08:21:43.239Z,94515.09
2018-07-25T08:24:09.257Z,94512.14
2018-07-25T08:26:35.280Z,94514.10
2018-07-25T08:29:01.290Z,94517.67
2018-07-25T08:31:27.305Z,94513.30
2018-07-25T08:33:53.329Z,94521.22
2018-07-25T08:36:19.336Z,94515.86
2018-07-25T08:38:45.354Z,94516.25
2018-07-25T08:41:11.398Z,94519.78
2018-07-25T08:43:37.406Z,94521.38
2018-07-25T08:46:03.416Z,94534.42
2018-07-25T08:48:29.424Z,94526.70
2018-07-25T08:50:55.449Z,94524.73
2018-07-25T08:53:21.462Z,94519.41
2018-07-25T08:55:47.502Z,94520.97
2018-07-25T08:58:14.203Z,94526.70
2018-07-25T09:00:40.272Z,94518.61
2018-07-25T09:03:07.053Z,94524.55
2018-07-25T09:05:33.079Z,94526.11
2018-07-25T09:07:59.099Z,94526.70
2018-07-25T09:10:25.124Z,94526.70
2018-07-25T09:12:51.218Z,94526.70
2018-07-25T09:15:17.185Z,94528.70
2018-07-25T09:17:43.236Z,94526.33
2018-07-25T09:20:09.238Z,94524.16
2018-07-25T09:22:35.256Z,94528.09
2018-07-25T09:25:01.266Z,94530.67
2018-07-25T09:27:27.283Z,94535.23
2018-07-25T09:29:53.300Z,94528.09
2018-07-25T09:32:19.317Z,94525.95
2018-07-25T09:34:45.319Z,94531.48
2018-07-25T09:37:11.363Z,94526.93
2018-07-25T09:39:37.382Z,94531.08
2018-07-25T09:42:03.395Z,94523.94
2018-07-25T09:44:29.412Z,94528.71
2018-07-25T09:49:21.444Z,94531.08
2018-07-25T09:51:47.463Z,94524.34
2018-07-25T09:54:13.522Z,94514.66
2018-07-25T09:56:39.573Z,94513.27
2018-07-25T09:59:05.658Z,94511.30
2018-07-25T10:01:31.598Z,94499.83
2018-07-25T10:03:57.640Z,94500.81
2018-07-25T10:06:23.634Z,94499.03
2018-07-25T10:08:49.640Z,94494.69
2018-07-25T10:11:15.649Z,94488.75
2018-07-25T10:13:41.671Z,94489.73
2018-07-25T10:16:07.674Z,94490.94
2018-07-25T10:18:33.692Z,94490.94
2018-07-25T10:20:59.702Z,94496.27
2018-07-25T10:23:25.708Z,94495.09
2018-07-25T10:25:51.723Z,94494.52
2018-07-25T10:28:17.763Z,94494.30
2018-07-25T10:30:43.782Z,94491.53
2018-07-25T10:33:09.800Z,94494.30
2018-07-25T10:35:35.810Z,94493.31
2018-07-25T10:38:01.829Z,94492.52
2018-07-25T10:40:27.845Z,94492.73
2018-07-25T10:42:53.866Z,94497.28
2018-07-25T10:45:20.033Z,94495.29
2018-07-25T10:47:46.047Z,94504.98
2018-07-25T10:50:12.053Z,94508.15
2018-07-25T10:52:38.074Z,94505.78
2018-07-25T10:55:04.120Z,94505.38
2018-07-25T10:57:30.244Z,94510.34
2018-07-25T10:59:56.265Z,94496.48
2018-07-25T11:02:22.278Z,94497.69
2018-07-25T11:04:48.300Z,94495.30
2018-07-25T11:07:14.309Z,94495.51
2018-07-25T11:09:40.348Z,94487.60
2018-07-25T11:12:06.365Z,94488.19
2018-07-25T11:14:32.378Z,94488.98
2018-07-25T11:16:58.387Z,94491.94
2018-07-25T11:19:24.404Z,94496.49
2018-07-25T11:21:50.431Z,94491.94
2018-07-25T11:24:16.509Z,94483.23
2018-07-25T11:26:42.519Z,94495.91
2018-07-25T11:29:08.544Z,94497.70
2018-07-25T11:31:34.566Z,94506.98
2018-07-25T11:34:00.585Z,94509.76
2018-07-25T11:36:26.634Z,94512.92
2018-07-25T11:38:52.768Z,94510.34
2018-07-25T11:41:18.806Z,94513.91
2018-07-25T11:43:44.929Z,94510.34
2018-07-25T11:46:10.923Z,94504.00
2018-07-25T11:48:37.090Z,94505.60
2018-07-25T11:51:03.139Z,94509.36
2018-07-25T11:53:29.139Z,94501.05
2018-07-25T11:55:55.172Z,94497.87
2018-07-25T11:58:21.201Z,94491.76
2018-07-25T12:00:47.203Z,94492.92
2018-07-25T12:03:13.211Z,94486.62
2018-07-25T12:05:39.262Z,94484.22
2018-07-25T12:08:05.259Z,94483.23
2018-07-25T12:10:31.272Z,94480.28
2018-07-25T12:12:57.321Z,94478.09
2018-07-25T12:15:23.334Z,94486.00
2018-07-25T12:17:49.342Z,94481.66
2018-07-25T12:20:15.354Z,94482.06
2018-07-25T12:22:41.357Z,94485.02
2018-07-25T12:25:07.374Z,94483.45
2018-07-25T12:27:33.374Z,94479.88
2018-07-25T12:29:59.398Z,94472.16
2018-07-25T12:32:25.513Z,94474.34
2018-07-25T12:34:51.664Z,94476.92
2018-07-25T12:37:17.677Z,94483.05
2018-07-25T12:39:43.725Z,94478.31
2018-07-25T12:42:09.744Z,94480.67
2018-07-25T12:44:35.974Z,94473.14
2018-07-25T12:47:01.959Z,94468.41
2018-07-25T12:49:28.020Z,94469.20
2018-07-25T12:51:54.025Z,94468.80
2018-07-25T12:54:20.068Z,94462.67
2018-07-25T12:56:46.077Z,94465.05
2018-07-25T12:59:12.097Z,94464.65
2018-07-25T13:01:38.164Z,94461.88
2018-07-25T13:04:04.177Z,94455.75
2018-07-25T13:06:30.186Z,94458.92
2018-07-25T13:08:56.260Z,94450.00
2018-07-25T13:11:22.328Z,94448.22
2018-07-25T13:13:48.357Z,94451.38
2018-07-25T13:16:14.342Z,94450.00
2018-07-25T13:18:40.368Z,94446.83
2018-07-25T13:21:06.458Z,94447.84
2018-07-25T13:23:32.483Z,94457.54
2018-07-25T13:25:58.573Z,94452.77
2018-07-25T13:28:24.631Z,94455.36
2018-07-25T13:30:50.677Z,94454.16
2018-07-25T13:33:16.720Z,94455.14
2018-07-25T13:35:42.791Z,94452.59
2018-07-25T13:38:08.905Z,94442.89
2018-07-25T13:40:34.914Z,94450.22
2018-07-25T13:43:01.006Z,94446.83
2018-07-25T13:45:26.964Z,94450.62
2018-07-25T13:47:53.192Z,94448.22
2018-07-25T13:50:19.231Z,94448.22
2018-07-25T13:52:45.208Z,94439.54
2018-07-25T13:55:11.219Z,94436.95
2018-07-25T13:57:37.225Z,94437.94
2018-07-25T14:00:03.232Z,94431.23
2018-07-25T14:02:29.248Z,94426.28
2018-07-25T14:04:55.300Z,94437.54
2018-07-25T14:07:21.316Z,94433.78
2018-07-25T14:09:47.333Z,94434.00
2018-07-25T14:12:13.390Z,94436.77
2018-07-25T14:14:39.372Z,94433.39
2018-07-25T14:17:05.380Z,94424.09
2018-07-25T14:19:31.410Z,94426.86
2018-07-25T14:21:57.416Z,94416.98
2018-07-25T14:24:23.556Z,94422.31
2018-07-25T14:26:49.516Z,94423.69
2018-07-25T14:29:15.489Z,94425.69
2018-07-25T14:31:41.504Z,94430.43
2018-07-25T14:34:07.568Z,94434.19
2018-07-25T14:36:33.548Z,94429.23
2018-07-25T14:38:59.592Z,94430.43
2018-07-25T14:41:25.585Z,94435.78
2018-07-25T14:43:51.644Z,94437.75
2018-07-25T14:46:17.649Z,94448.25
2018-07-25T14:48:43.661Z,94453.57
2018-07-25T14:51:09.727Z,94455.36
2018-07-25T14:53:35.694Z,94453.97
2018-07-25T14:58:45.556Z,94457.94
2018-07-25T15:01:11.599Z,94459.69
2018-07-25T15:03:37.585Z,94460.50
2018-07-25T15:06:03.637Z,94462.68
2018-07-25T15:08:29.676Z,94459.91
2018-07-25T15:10:55.724Z,94462.46
2018-07-25T15:13:21.698Z,94461.30
2018-07-25T15:15:47.749Z,94466.03
2018-07-25T15:18:13.953Z,94454.77
2018-07-25T15:20:40.038Z,94456.34
2018-07-25T15:23:06.036Z,94452.19
2018-07-25T15:25:32.049Z,94453.17
2018-07-25T15:27:58.068Z,94448.03
2018-07-25T15:30:24.145Z,94454.37
2018-07-25T15:32:50.171Z,94459.91
2018-07-25T15:35:16.187Z,94456.34
2018-07-25T15:37:42.216Z,94463.84
2018-07-25T15:40:08.237Z,94465.84
2018-07-25T15:42:34.281Z,94466.44
2018-07-25T15:45:09.178Z,94474.34
2018-07-25T15:47:35.213Z,94477.52
2018-07-25T15:50:01.245Z,94477.11
2018-07-25T15:52:27.248Z,94480.09
2018-07-25T15:54:53.250Z,94479.88
2018-07-25T15:57:19.411Z,94473.17
2018-07-25T15:59:45.383Z,94467.23
2018-07-25T16:02:11.389Z,94468.41
2018-07-25T16:04:37.391Z,94467.42
2018-07-25T16:07:03.444Z,94466.03
2018-07-25T16:09:29.467Z,94465.23
2018-07-25T16:11:55.530Z,94462.86
2018-07-25T16:14:21.553Z,94464.25
2018-07-25T16:16:47.579Z,94467.63
2018-07-25T16:19:13.596Z,94468.22
2018-07-25T16:21:39.707Z,94472.56
2018-07-25T16:24:05.901Z,94471.17
2018-07-25T16:26:31.848Z,94481.48
2018-07-25T16:28:57.878Z,94493.55
2018-07-25T16:31:23.892Z,94497.30
2018-07-25T16:33:49.987Z,94500.07
2018-07-25T16:36:16.036Z,94498.29
2018-07-25T16:38:42.072Z,94493.15
2018-07-25T16:41:08.326Z,94486.62
2018-07-25T16:43:34.312Z,94486.62
2018-07-25T16:46:00.358Z,94492.34
2018-07-25T16:48:26.411Z,94499.48
2018-07-25T16:50:52.445Z,94500.88
2018-07-25T16:53:18.452Z,94507.19
2018-07-25T16:55:44.535Z,94516.11
2018-07-25T16:58:10.559Z,94522.41
2018-07-25T17:00:36.862Z,94521.03
2018-07-25T17:03:02.920Z,94521.03
2018-07-25T17:05:28.960Z,94525.98
2018-07-25T17:07:54.966Z,94532.33
2018-07-25T17:10:21.331Z,94534.70
2018-07-25T17:12:47.310Z,94541.40
2018-07-25T17:15:13.348Z,94543.00
2018-07-25T17:17:39.376Z,94537.47
2018-07-25T17:20:05.410Z,94544.80
2018-07-25T17:22:31.449Z,94540.02
2018-07-25T17:24:57.483Z,94544.58
2018-07-25T17:27:23.495Z,94548.16
2018-07-25T17:29:49.517Z,94545.20
2018-07-25T17:32:15.585Z,94549.54
2018-07-25T17:34:41.589Z,94555.30
2018-07-25T17:37:07.639Z,94561.61
2018-07-25T17:39:33.602Z,94567.36
2018-07-25T17:41:59.621Z,94572.69
2018-07-25T17:44:25.678Z,94575.45
2018-07-25T17:46:51.704Z,94583.58
2018-07-25T17:49:17.713Z,94592.30
2018-07-25T17:51:43.718Z,94592.88
2018-07-25T17:54:09.742Z,94588.51
2018-07-25T17:56:35.773Z,94584.56
2018-07-25T17:59:01.857Z,94587.52
2018-07-25T18:01:27.878Z,94584.75
2018-07-25T18:03:53.907Z,94595.65
2018-07-25T18:06:19.938Z,94594.45
2018-07-25T18:08:45.955Z,94601.58
2018-07-25T18:11:11.983Z,94600.20
2018-07-25T18:13:38.005Z,94599.00
2018-07-25T18:16:04.027Z,94593.86
2018-07-25T18:18:30.054Z,94590.91
2018-07-25T18:20:56.092Z,94592.88
2018-07-25T18:23:22.186Z,94595.25
2018-07-25T18:25:48.214Z,94597.04
2018-07-25T18:28:14.236Z,94593.28
2018-07-25T18:30:40.355Z,94588.55
2018-07-25T18:33:06.378Z,94590.30
2018-07-25T18:35:32.397Z,94593.28
2018-07-25T18:37:58.430Z,94593.28
2018-07-25T18:40:24.474Z,94595.84
2018-07-25T18:42:50.498Z,94603.56
2018-07-25T18:45:16.639Z,94616.84
2018-07-25T18:47:45.921Z,94619.39
2018-07-25T18:50:12.111Z,94617.64
2018-07-25T18:52:38.180Z,94631.27
2018-07-25T18:55:04.226Z,94637.40
2018-07-25T18:57:30.211Z,94627.52
2018-07-25T18:59:56.244Z,94632.25
2018-07-25T19:02:22.275Z,94635.64
2018-07-25T19:04:48.296Z,94641.18
2018-07-25T19:07:14.844Z,94640.16
2018-07-25T19:09:41.392Z,94639.98
2018-07-25T19:12:08.166Z,94642.56
2018-07-25T19:14:34.199Z,94646.91
2018-07-25T19:17:00.430Z,94647.08
2018-07-25T19:19:26.820Z,94652.22
2018-07-25T19:21:53.346Z,94655.39
2018-07-25T19:24:19.370Z,94652.22
2018-07-25T19:26:45.398Z,94643.90
2018-07-25T19:29:11.400Z,94641.34
2018-07-25T19:31:37.440Z,94646.48
2018-07-25T19:34:03.622Z,94644.11
2018-07-25T19:36:30.254Z,94632.81
2018-07-25T19:38:56.289Z,94633.83
2018-07-25T19:41:22.314Z,94629.05
2018-07-25T19:43:48.324Z,94629.45
2018-07-25T19:46:14.339Z,94632.80
2018-07-25T19:48:40.371Z,94631.42
2018-07-25T19:51:06.372Z,94626.69
2018-07-25T19:53:32.385Z,94621.14
2018-07-25T19:55:58.445Z,94617.97
2018-07-25T19:58:24.639Z,94617.79
2018-07-25T20:00:50.741Z,94618.38
2018-07-25T20:03:17.106Z,94613.63
2018-07-25T20:05:43.142Z,94614.03
2018-07-25T20:08:09.146Z,94607.10
2018-07-25T20:10:36.319Z,94601.97
2018-07-25T20:13:02.360Z,94602.73
2018-07-25T20:15:28.388Z,94604.33
2018-07-25T20:17:54.531Z,94606.48
2018-07-25T20:20:20.587Z,94605.31
2018-07-25T20:22:46.606Z,94604.91
2018-07-25T20:25:12.620Z,94611.66
2018-07-25T20:27:38.646Z,94615.99
2018-07-25T20:30:04.698Z,94619.92
2018-07-25T20:32:30.698Z,94612.63
2018-07-25T20:34:56.710Z,94613.40
2018-07-25T20:37:22.724Z,94619.34
2018-07-25T20:39:48.755Z,94615.59
2018-07-25T20:42:14.761Z,94611.03
2018-07-25T20:44:40.760Z,94609.06
2018-07-25T20:47:06.788Z,94611.43
2018-07-25T20:49:32.807Z,94609.24
2018-07-25T20:51:58.831Z,94611.23
2018-07-25T20:54:24.863Z,94607.85
2018-07-25T20:56:50.905Z,94610.44
2018-07-25T20:59:16.892Z,94602.92
2018-07-25T21:01:42.938Z,94604.09
2018-07-25T21:04:08.974Z,94608.25
2018-07-25T21:06:34.983Z,94600.92
2018-07-25T21:09:00.993Z,94610.43
2018-07-25T21:11:27.006Z,94602.13
2018-07-25T21:13:53.034Z,94606.28
2018-07-25T21:16:19.068Z,94611.41
2018-07-25T21:18:45.119Z,94612.00
2018-07-25T21:21:11.181Z,94614.00
2018-07-25T21:23:37.154Z,94612.98
2018-07-25T21:26:03.221Z,94618.15
2018-07-25T21:28:29.251Z,94609.84
2018-07-25T21:30:55.290Z,94614.76
2018-07-25T21:33:21.310Z,94616.14
2018-07-25T21:35:47.333Z,94616.76
2018-07-25T21:38:13.364Z,94616.36
2018-07-25T21:40:39.428Z,94604.30
2018-07-25T21:43:05.492Z,94596.76
2018-07-25T21:45:31.551Z,94601.52
2018-07-25T21:47:57.550Z,94601.70
2018-07-25T21:50:23.586Z,94605.45
2018-07-25T21:52:49.614Z,94606.44
2018-07-25T21:55:15.640Z,94605.86
2018-07-25T21:57:41.665Z,94606.44
2018-07-25T22:00:07.691Z,94599.52
2018-07-25T22:02:33.740Z,94591.42
2018-07-25T22:04:59.756Z,94589.64
2018-07-25T22:07:25.799Z,94589.02
2018-07-25T22:09:51.820Z,94591.42
2018-07-25T22:12:17.838Z,94585.88
2018-07-25T22:14:43.863Z,94592.41
2018-07-25T22:17:09.889Z,94595.17
2018-07-25T22:19:35.909Z,94602.28
2018-07-25T22:22:01.927Z,94603.66
2018-07-25T22:24:27.954Z,94601.11
2018-07-25T22:26:54.037Z,94603.47
2018-07-25T22:29:20.061Z,94606.24
2018-07-25T22:31:46.089Z,94601.69
2018-07-25T22:34:12.143Z,94596.33
2018-07-25T22:36:38.152Z,94597.31
2018-07-25T22:39:04.158Z,94595.16
2018-07-25T22:41:30.171Z,94593.38
2018-07-25T22:43:56.185Z,94598.92
2018-07-25T22:46:22.190Z,94597.13
2018-07-25T22:48:48.208Z,94598.92
2018-07-25T22:51:14.246Z,94591.78
2018-07-25T22:53:40.225Z,94594.95
2018-07-25T22:56:06.246Z,94598.12
2018-07-25T22:58:32.260Z,94602.08
2018-07-25T23:00:58.271Z,94599.71
2018-07-25T23:03:24.303Z,94597.13
2018-07-25T23:05:50.318Z,94599.50
2018-07-25T23:08:16.327Z,94597.53
2018-07-25T23:10:42.343Z,94599.50
2018-07-25T23:13:08.351Z,94602.27
2018-07-25T23:15:34.377Z,94601.86
2018-07-25T23:18:00.382Z,94609.39
2018-07-25T23:20:26.386Z,94609.77
2018-07-25T23:22:52.394Z,94605.24
2018-07-25T23:25:18.402Z,94612.53
2018-07-25T23:27:44.419Z,94604.44
2018-07-25T23:30:10.461Z,94602.08
2018-07-25T23:32:36.477Z,94606.01
2018-07-25T23:35:02.486Z,94606.81
2018-07-25T23:37:28.533Z,94609.18
2018-07-25T23:39:54.537Z,94599.30
2018-07-25T23:42:20.511Z,94600.69
2018-07-25T23:44:46.527Z,94605.42
2018-07-25T23:47:12.537Z,94600.69
2018-07-25T23:49:38.551Z,94603.64
2018-07-25T23:52:04.569Z,94610.56
2018-07-25T23:54:30.580Z,94613.33
2018-07-25T23:56:56.593Z,94617.69
2018-07-25T23:59:22.609Z,94630.92
